LFPO 171900Z 19004KT 9999 FEW013 BKN230 06/05 Q1025 TEMPO BKN006

ElémentsDécodage
LFPO Station météo située sur l'aérodrome de PARIS Orly
171900Z émis le 17 du mois à 19h00 UTC
19004KT vent du 190°, 04 noeuds
9999 visibilité horizontale supérieure à 10 Km
FEW013 nuages rares (1/8 à 2/8) à 1300 pieds
BKN230 nuages morcelés (5/8 à 7/8) à 23000 pieds
06/05 température 06°C, point de rosée 05°C
 soit une humidité relative de 93%
Q1025 la pression au niveau de la mer (QNH) est de 1025 hPa
TEMPO fluctuation temporaire prévue
BKN006 nuages morcelés (5/8 à 7/8) à 600 pieds